Flight Track Log - Related Links

Times and Time Zones

All times are in EDT time to prevent confusion due to time zone crossing. See the ASQ5958 flight status page for this flight to view local times or setup timezone preferences in your user account.

Time Position Orientation Groundspeed Altitude Reporting Facility
EDT Latitude Longitude Course Direction KTS MPH feet Rate Location/Type
Mon 01:15:49 PM 42.0167 -87.9667 340° North 193 222 2,900  Level Chicago TRACON
Mon 01:16:49 PM 42.0833 -88.0000 340° North 254 292 4,900 2,100 Climbing Chicago TRACON
Mon 01:17:49 PM 42.1500 -88.0500 331° Northwest 267 307 7,100 2,235 Climbing Chicago TRACON
Mon 01:18:31 PM 42.1603 -88.1139 282° West 286 329 8,700 2,192 Climbing Chicago Center
Mon 01:19:33 PM 42.1264 -88.2217 247° West 312 359 10,900 1,645 Climbing Chicago Center
Mon 01:20:35 PM 42.0900 -88.3353 247° West 334 384 12,100 1,152 Climbing Chicago Center
Mon 01:21:38 PM 42.0492 -88.4608 246° West 363 418 13,300 1,444 Climbing Chicago Center
Mon 01:23:42 PM 41.9589 -88.7503 247° West 386 444 16,600 1,419 Climbing Chicago Center
Mon 01:24:44 PM 41.9164 -88.8847 247° West 394 453 17,700 968 Climbing Chicago Center
Mon 01:25:46 PM 41.9017 -89.0331 262° West 406 467 18,600 919 Climbing Chicago Center
Mon 01:26:48 PM 41.8844 -89.1825 261° West 408 470 19,600 1,210 Climbing Chicago Center
Mon 01:27:50 PM 41.8675 -89.3664 263° West 415 478 21,100 1,452 Climbing Chicago Center
Mon 01:28:52 PM 41.8525 -89.5192 263° West 417 480 22,600 1,355 Climbing Chicago Center
Mon 01:29:54 PM 41.8381 -89.6689 263° West 409 471 23,900 452 Climbing Chicago Center
Mon 01:31:00 PM 41.8309 -89.7934 266° West  Level FlightAware Approximate
Mon 01:31:58 PM 41.8119 -89.9892 266° West 448 516 24,000  Level Chicago Center
Mon 01:33:00 PM 41.8036 -90.1906 267° West 462 532 24,000  Level Chicago Center
Mon 01:34:02 PM 41.7964 -90.3650 267° West 471 542 24,000  Level Chicago Center
Mon 01:35:05 PM 41.7847 -90.5475 265° West 463 533 24,000  Level Chicago Center
Mon 01:36:07 PM 41.7744 -90.7050 265° West 463 533 24,000  Level Chicago Center
Mon 01:37:09 PM 41.7625 -90.8750 265° West 462 532 24,000  Level Chicago Center
Mon 01:38:11 PM 41.7486 -91.0753 265° West 454 522 24,000  Level Chicago Center
Mon 01:39:13 PM 41.7358 -91.2428 264° West 456 525 24,000  Level Chicago Center
Mon 01:40:15 PM 41.7253 -91.4083 265° West 452 520 24,000  Level Chicago Center
Mon 01:41:17 PM 41.7119 -91.5772 264° West 455 524 24,000  Level Chicago Center
Mon 01:42:19 PM 41.6989 -91.7422 264° West 452 520 24,000  Level Chicago Center
Mon 01:43:21 PM 41.6858 -91.9089 264° West 452 520 24,000 -726 Level Chicago Center
Mon 01:44:23 PM 41.6706 -92.1061 264° West 448 516 22,500 -1,452 Descending Chicago Center
Mon 01:45:25 PM 41.6575 -92.2683 264° West 442 509 21,000 -1,790 Descending Chicago Center
Mon 01:46:27 PM 41.6442 -92.4275 264° West 435 501 18,800 -2,129 Descending Chicago Center
Mon 01:47:29 PM 41.6314 -92.5842 264° West 429 494 16,600 -2,177 Descending Chicago Center
Mon 01:48:31 PM 41.6189 -92.7308 264° West 406 467 14,300 -2,140 Descending Chicago Center
Mon 01:49:38 PM 41.5947 -92.9042 259° West 389 448 12,000 -1,581 Descending Minneapolis Center
Mon 01:50:40 PM 41.5686 -93.0250 254° West 357 411 10,900 -1,125 Descending Minneapolis Center
Mon 01:51:30 PM 41.5531 -93.1203 258° West 313 360 9,900 -1,081 Descending Minneapolis Center
Mon 01:52:31 PM 41.5303 -93.2311 255° West 310 357 8,900 -1,289 Descending Minneapolis Center
Mon 01:53:31 PM 41.5069 -93.3389 254° West 305 351 7,300 -1,537 Descending Minneapolis Center
Mon 01:54:32 PM 41.4875 -93.4408 256° West 290 334 5,800 -1,286 Descending Minneapolis Center
Mon 01:55:51 PM 41.4547 -93.5706 251° West 260 299 4,300 -1,140 Descending Minneapolis Center
Mon 01:56:33 PM 41.4489 -93.6197 261° West 240 276 3,500 -1,143 Descending Minneapolis Center

Login

Don't have an account? Register now (free) for customized features, flight alerts, and more!